createdAt,value
2023-03-01T00:00:00.155Z,101608.79
2023-03-01T00:02:05.844Z,101607.89
2023-03-01T00:04:11.578Z,101607.36
2023-03-01T00:06:16.958Z,101615.03
2023-03-01T00:08:22.292Z,101618.39
2023-03-01T00:10:28.276Z,101620.39
2023-03-01T00:12:34.260Z,101630.66
2023-03-01T00:14:39.702Z,101634.56
2023-03-01T00:16:45.282Z,101634.08
2023-03-01T00:18:51.047Z,101641.38
2023-03-01T00:20:57.009Z,101637.31
2023-03-01T00:23:02.347Z,101633.5
2023-03-01T00:25:08.059Z,101629.54
2023-03-01T00:27:13.616Z,101625.45
2023-03-01T00:29:18.907Z,101616.22
2023-03-01T00:31:24.131Z,101607.39
2023-03-01T00:33:29.298Z,101608.91
2023-03-01T00:35:34.755Z,101608.85
2023-03-01T00:37:40.362Z,101608.39
2023-03-01T00:39:45.643Z,101602.44
2023-03-01T00:41:51.015Z,101597.04
2023-03-01T00:43:56.371Z,101601.23
2023-03-01T00:46:01.861Z,101599.79
2023-03-01T00:48:07.391Z,101597.62
2023-03-01T00:50:12.504Z,101596.8
2023-03-01T00:52:17.657Z,101592.16
2023-03-01T00:54:23.258Z,101589.55
2023-03-01T00:56:28.808Z,101586.38
2023-03-01T00:58:35.832Z,101586.41
2023-03-01T01:00:41.482Z,101586.38
2023-03-01T01:02:47.026Z,101584.69
2023-03-01T01:04:52.848Z,101585.12
2023-03-01T01:06:58.015Z,101572.31
2023-03-01T01:09:03.372Z,101567.77
2023-03-01T01:11:09.189Z,101569.84
2023-03-01T01:13:14.829Z,101567.03
2023-03-01T01:15:20.272Z,101563.53
2023-03-01T01:17:25.382Z,101559.02
2023-03-01T01:19:30.931Z,101558.14
2023-03-01T01:21:37.027Z,101561.78
2023-03-01T01:23:42.264Z,101563.81
2023-03-01T01:25:47.835Z,101563.56
2023-03-01T01:27:53.259Z,101566.27
2023-03-01T01:29:58.755Z,101566.11
2023-03-01T01:32:04.173Z,101562.84
2023-03-01T01:34:09.784Z,101570.02
2023-03-01T01:36:15.100Z,101562.75
2023-03-01T01:38:20.472Z,101551.87
2023-03-01T01:40:26.042Z,101555.58
2023-03-01T01:42:31.417Z,101543.14
2023-03-01T01:44:36.955Z,101544.26
2023-03-01T01:46:42.524Z,101548.31
2023-03-01T01:48:48.188Z,101542.34
2023-03-01T01:50:53.557Z,101533.8
2023-03-01T01:52:58.822Z,101533.48
2023-03-01T01:55:04.140Z,101530.3
2023-03-01T01:57:09.389Z,101530.39
2023-03-01T01:59:14.474Z,101530.81
2023-03-01T02:01:19.868Z,101531.5
2023-03-01T02:03:25.420Z,101524.57
2023-03-01T02:05:31.055Z,101523.91
2023-03-01T02:07:36.391Z,101522.13
2023-03-01T02:09:41.712Z,101516.89
2023-03-01T02:11:47.419Z,101513.88
2023-03-01T02:13:53.163Z,101508.55
2023-03-01T02:15:58.578Z,101508.2
2023-03-01T02:18:03.952Z,101512.61
2023-03-01T02:20:09.317Z,101513.94
2023-03-01T02:22:14.394Z,101511.35
2023-03-01T02:24:21.524Z,101514.46
2023-03-01T02:26:26.799Z,101508.91
2023-03-01T02:28:32.660Z,101510.92
2023-03-01T02:30:38.487Z,101515.53
2023-03-01T02:32:43.831Z,101520.92
2023-03-01T02:34:49.329Z,101520.91
2023-03-01T02:36:54.967Z,101522.77
2023-03-01T02:39:00.198Z,101522.33
2023-03-01T02:41:05.308Z,101520.2
2023-03-01T02:43:10.420Z,101520.72
2023-03-01T02:45:15.602Z,101521.9
2023-03-01T02:47:20.864Z,101520.38
2023-03-01T02:49:26.015Z,101515.91
2023-03-01T02:51:31.352Z,101514.14
2023-03-01T02:53:36.675Z,101512.4
2023-03-01T02:55:42.042Z,101509.14
2023-03-01T02:57:47.345Z,101511.5
2023-03-01T02:59:52.664Z,101509.78
2023-03-01T03:01:57.780Z,101507.22
2023-03-01T03:04:03.193Z,101505.59
2023-03-01T03:06:08.614Z,101503.38
2023-03-01T03:08:13.859Z,101502.05
2023-03-01T03:10:19.321Z,101502.02
2023-03-01T03:12:24.745Z,101505.46
2023-03-01T03:14:30.040Z,101503.03
2023-03-01T03:16:35.805Z,101501.09
2023-03-01T03:18:41.196Z,101495.95
2023-03-01T03:20:46.364Z,101493.39
2023-03-01T03:22:51.673Z,101495.04
2023-03-01T03:24:57.135Z,101492.4
2023-03-01T03:27:02.588Z,101496.06
2023-03-01T03:29:08.056Z,101489.92
2023-03-01T03:31:13.508Z,101493.09
2023-03-01T03:33:18.959Z,101490
2023-03-01T03:35:24.333Z,101488.41
2023-03-01T03:37:29.855Z,101485.18
2023-03-01T03:39:35.632Z,101485.78
2023-03-01T03:41:41.126Z,101477.81
2023-03-01T03:43:46.308Z,101476.34
2023-03-01T03:45:51.719Z,101476.28
2023-03-01T03:47:57.141Z,101469.47
2023-03-01T03:50:02.742Z,101463.03
2023-03-01T03:52:08.479Z,101461.08
2023-03-01T03:54:14.306Z,101457.38
2023-03-01T03:56:19.821Z,101458.45
2023-03-01T03:58:25.178Z,101454.09
2023-03-01T04:00:30.287Z,101456.8
2023-03-01T04:02:35.868Z,101455.23
2023-03-01T04:04:41.456Z,101455.9
2023-03-01T04:06:46.723Z,101453.9
2023-03-01T04:08:52.727Z,101447.28
2023-03-01T04:10:58.012Z,101445.2
2023-03-01T04:13:03.525Z,101448.52
2023-03-01T04:15:08.855Z,101444.98
2023-03-01T04:17:14.434Z,101444.89
2023-03-01T04:19:20.255Z,101445.25
2023-03-01T04:21:25.829Z,101444.44
2023-03-01T04:23:31.088Z,101443.54
2023-03-01T04:25:36.576Z,101442.73
2023-03-01T04:27:42.256Z,101443.97
2023-03-01T04:29:47.636Z,101444.78
2023-03-01T04:31:54.229Z,101433.98
2023-03-01T04:33:59.844Z,101435.47
2023-03-01T04:36:05.321Z,101436.98
2023-03-01T04:38:11.350Z,101437.95
2023-03-01T04:40:16.533Z,101439.27
2023-03-01T04:42:22.231Z,101438.79
2023-03-01T04:44:27.826Z,101441.84
2023-03-01T04:46:33.984Z,101446.42
2023-03-01T04:48:39.572Z,101444.86
2023-03-01T04:50:45.106Z,101443.68
2023-03-01T04:52:50.781Z,101449.02
2023-03-01T04:54:56.313Z,101453.7
2023-03-01T04:57:01.751Z,101449.65
2023-03-01T04:59:07.630Z,101439.84
2023-03-01T05:01:12.956Z,101430.78
2023-03-01T05:03:18.311Z,101429.03
2023-03-01T05:05:23.677Z,101438.83
2023-03-01T05:07:29.214Z,101434.2
2023-03-01T05:09:34.789Z,101425.89
2023-03-01T05:11:40.165Z,101424.41
2023-03-01T05:13:45.587Z,101421.61
2023-03-01T05:15:51.032Z,101423.97
2023-03-01T05:17:56.474Z,101418.56
2023-03-01T05:20:01.780Z,101418.25
2023-03-01T05:22:07.222Z,101422.86
2023-03-01T05:24:12.640Z,101421.79
2023-03-01T05:26:29.332Z,101426.41
2023-03-01T05:28:34.777Z,101421.73
2023-03-01T05:30:39.966Z,101420.1
2023-03-01T05:32:45.323Z,101422.63
2023-03-01T05:34:50.939Z,101419.44
2023-03-01T05:36:56.322Z,101423.14
2023-03-01T05:39:02.644Z,101428.47
2023-03-01T05:41:07.788Z,101436.64
2023-03-01T05:43:13.138Z,101430.41
2023-03-01T05:45:18.471Z,101428.81
2023-03-01T05:47:25.050Z,101437.77
2023-03-01T05:49:30.358Z,101443.73
2023-03-01T05:51:35.964Z,101446.87
2023-03-01T05:53:41.843Z,101444.48
2023-03-01T05:55:47.467Z,101453.8
2023-03-01T05:57:52.961Z,101451.4
2023-03-01T05:59:58.258Z,101449.13
2023-03-01T06:02:03.710Z,101455.7
2023-03-01T06:04:10.130Z,101461.55
2023-03-01T06:06:15.787Z,101465.36
2023-03-01T06:08:20.994Z,101459.47
2023-03-01T06:10:26.350Z,101461.17
2023-03-01T06:12:32.027Z,101461.8
2023-03-01T06:14:37.592Z,101464.28
2023-03-01T06:16:42.959Z,101468.88
2023-03-01T06:18:48.435Z,101462.2
2023-03-01T06:20:53.688Z,101467.63
2023-03-01T06:22:59.000Z,101467.76
2023-03-01T06:25:04.789Z,101461.27
2023-03-01T06:27:10.158Z,101462.14
2023-03-01T06:29:15.303Z,101461.08
2023-03-01T06:31:20.930Z,101460.19
2023-03-01T06:33:26.854Z,101460.98
2023-03-01T06:35:32.453Z,101458.23
2023-03-01T06:37:37.929Z,101459.13
2023-03-01T06:39:44.284Z,101463.69
2023-03-01T06:41:50.231Z,101459.06
2023-03-01T06:43:58.103Z,101462.58
2023-03-01T06:46:03.465Z,101457.95
2023-03-01T06:48:08.890Z,101456.16
2023-03-01T06:50:14.168Z,101449.44
2023-03-01T06:52:19.803Z,101450.16
2023-03-01T06:54:25.008Z,101443.05
2023-03-01T06:56:31.258Z,101441.98
2023-03-01T06:58:37.573Z,101441.77
2023-03-01T07:00:42.903Z,101442.57
2023-03-01T07:02:48.509Z,101443.13
2023-03-01T07:04:53.984Z,101445.88
2023-03-01T07:06:59.286Z,101444.3
2023-03-01T07:09:04.617Z,101441.02
2023-03-01T07:11:10.024Z,101443.09
2023-03-01T07:13:15.306Z,101441.35
2023-03-01T07:15:20.697Z,101442.53
2023-03-01T07:17:26.156Z,101439.7
2023-03-01T07:19:31.525Z,101436.83
2023-03-01T07:21:36.852Z,101436.31
2023-03-01T07:23:42.283Z,101430.67
2023-03-01T07:25:47.866Z,101433.49
2023-03-01T07:27:53.486Z,101433.22
2023-03-01T07:29:59.264Z,101435.89
2023-03-01T07:32:05.079Z,101428.82
2023-03-01T07:34:10.917Z,101424.66
2023-03-01T07:36:16.482Z,101423.98
2023-03-01T07:38:22.138Z,101422.19
2023-03-01T07:40:27.821Z,101421.38
2023-03-01T07:42:33.491Z,101415.78
2023-03-01T07:44:39.246Z,101415.76
2023-03-01T07:46:45.072Z,101414.3
2023-03-01T07:48:50.886Z,101412.61
2023-03-01T07:50:56.310Z,101407.93
2023-03-01T07:53:01.744Z,101404.05
2023-03-01T07:55:07.550Z,101402.28
2023-03-01T07:57:12.884Z,101399.27
2023-03-01T07:59:18.662Z,101395.27
2023-03-01T08:01:24.052Z,101387.26
2023-03-01T08:03:29.643Z,101396.02
2023-03-01T08:05:35.134Z,101387.7
2023-03-01T08:07:40.518Z,101385.33
2023-03-01T08:09:46.227Z,101385.03
2023-03-01T08:11:51.938Z,101390.7
2023-03-01T08:13:58.902Z,101389.78
2023-03-01T08:16:04.766Z,101390.98
2023-03-01T08:18:10.609Z,101385.3
2023-03-01T08:20:17.267Z,101393.92
2023-03-01T08:22:24.240Z,101394.94
2023-03-01T08:24:29.888Z,101394.76
2023-03-01T08:26:35.826Z,101393.64
2023-03-01T08:28:41.310Z,101390.18
2023-03-01T08:30:46.798Z,101387.95
2023-03-01T08:32:52.885Z,101385.17
2023-03-01T08:34:58.706Z,101388.3
2023-03-01T08:37:04.279Z,101391.53
2023-03-01T08:39:09.813Z,101394.23
2023-03-01T08:41:15.326Z,101399.7
2023-03-01T08:43:21.820Z,101399.02
2023-03-01T08:45:30.512Z,101400.13
2023-03-01T08:47:36.042Z,101402.83
2023-03-01T08:49:41.543Z,101404.98
2023-03-01T08:51:46.736Z,101410.53
2023-03-01T08:53:51.947Z,101408.55
2023-03-01T08:55:57.494Z,101409.13
2023-03-01T08:58:02.814Z,101401.02
2023-03-01T09:00:08.237Z,101392.73
2023-03-01T09:02:13.463Z,101394.14
2023-03-01T09:04:19.064Z,101389.01
2023-03-01T09:06:24.311Z,101391.78
2023-03-01T09:08:29.741Z,101392.11
2023-03-01T09:10:35.079Z,101388.69
2023-03-01T09:12:40.570Z,101384.66
2023-03-01T09:14:45.876Z,101380.54
2023-03-01T09:16:51.440Z,101383.1
2023-03-01T09:18:57.145Z,101386.75
2023-03-01T09:21:02.275Z,101388.45
2023-03-01T09:23:07.862Z,101397.11
2023-03-01T09:25:13.248Z,101406.69
2023-03-01T09:27:18.648Z,101404.53
2023-03-01T09:29:24.340Z,101399.25
2023-03-01T09:31:29.716Z,101394.13
2023-03-01T09:33:34.935Z,101401.45
2023-03-01T09:35:40.349Z,101392.3
2023-03-01T09:37:45.671Z,101390.38
2023-03-01T09:39:50.996Z,101382.66
2023-03-01T09:41:56.442Z,101386.73
2023-03-01T09:44:01.742Z,101389.31
2023-03-01T09:46:06.961Z,101383.23
2023-03-01T09:48:12.367Z,101383.41
2023-03-01T09:50:17.762Z,101377.05
2023-03-01T09:52:23.291Z,101373.07
2023-03-01T09:54:28.569Z,101367.25
2023-03-01T09:56:34.464Z,101366.53
2023-03-01T09:58:40.008Z,101368.59
2023-03-01T10:00:45.606Z,101371.39
2023-03-01T10:02:51.348Z,101358.93
2023-03-01T10:04:56.765Z,101362.11
2023-03-01T10:07:02.559Z,101358.39
2023-03-01T10:09:08.120Z,101358.49
2023-03-01T10:11:13.386Z,101349.59
2023-03-01T10:13:19.605Z,101347.39
2023-03-01T10:15:25.112Z,101350.59
2023-03-01T10:17:30.685Z,101351
2023-03-01T10:19:36.030Z,101345.77
2023-03-01T10:21:41.467Z,101340.78
2023-03-01T10:23:46.878Z,101341.45
2023-03-01T10:25:52.529Z,101334.28
2023-03-01T10:27:58.007Z,101329.31
2023-03-01T10:30:03.399Z,101325.3
2023-03-01T10:32:09.606Z,101321.98
2023-03-01T10:34:15.093Z,101323.16
2023-03-01T10:36:20.301Z,101315.68
2023-03-01T10:38:25.693Z,101308.67
2023-03-01T10:40:30.997Z,101307.9
2023-03-01T10:42:36.953Z,101300.53
2023-03-01T10:44:42.615Z,101299.97
2023-03-01T10:46:47.959Z,101296.92
2023-03-01T10:48:53.365Z,101296.44
2023-03-01T10:50:58.576Z,101296.28
2023-03-01T10:53:03.890Z,101293.23
2023-03-01T10:55:09.155Z,101302.53
2023-03-01T10:57:14.403Z,101300.78
2023-03-01T10:59:19.557Z,101299.09
2023-03-01T11:01:25.060Z,101300.78
2023-03-01T11:03:30.560Z,101297.53
2023-03-01T11:05:36.051Z,101297.24
2023-03-01T11:07:56.023Z,101296.11
2023-03-01T11:10:01.426Z,101295.16
2023-03-01T11:12:06.647Z,101291.85
2023-03-01T11:14:27.824Z,101287.44
2023-03-01T11:16:33.710Z,101280.27
2023-03-01T11:18:49.212Z,101281.67
2023-03-01T11:20:54.705Z,101285.03
2023-03-01T11:23:00.002Z,101286.41
2023-03-01T11:25:11.992Z,101281.97
2023-03-01T11:27:17.202Z,101277.73
2023-03-01T11:29:22.667Z,101276.91
2023-03-01T11:31:27.964Z,101279.53
2023-03-01T11:33:34.682Z,101272.85
2023-03-01T11:35:40.073Z,101263.59
2023-03-01T11:37:47.649Z,101264.08
2023-03-01T11:39:53.127Z,101264.11
2023-03-01T11:42:12.868Z,101263.47
2023-03-01T11:44:23.514Z,101263.94
2023-03-01T11:46:29.470Z,101263.77
2023-03-01T11:48:50.474Z,101260.89
2023-03-01T11:50:56.421Z,101259.31
2023-03-01T11:53:02.050Z,101254.64
2023-03-01T11:55:07.317Z,101253.16
2023-03-01T11:57:12.745Z,101246.45
2023-03-01T11:59:18.202Z,101259.41
2023-03-01T12:01:23.804Z,101257.44
2023-03-01T12:03:28.963Z,101259.53
2023-03-01T12:05:34.394Z,101258.92
2023-03-01T12:07:39.750Z,101253.05
2023-03-01T12:09:45.111Z,101256.82
2023-03-01T12:11:50.796Z,101258.56
2023-03-01T12:13:56.623Z,101263.88
2023-03-01T12:16:02.409Z,101256.81
2023-03-01T12:18:08.522Z,101255.75
2023-03-01T12:20:13.890Z,101252.26
2023-03-01T12:22:19.876Z,101258
2023-03-01T12:24:25.242Z,101260.25
2023-03-01T12:26:30.413Z,101258.48
2023-03-01T12:28:35.632Z,101258.77
2023-03-01T12:30:40.743Z,101260.02
2023-03-01T12:32:46.291Z,101265.38
2023-03-01T12:34:51.829Z,101263.98
2023-03-01T12:36:57.132Z,101260.67
2023-03-01T12:39:02.454Z,101258.86
2023-03-01T12:41:08.057Z,101256.65
2023-03-01T12:43:13.798Z,101254.5
2023-03-01T12:45:19.076Z,101250.49
2023-03-01T12:47:24.440Z,101252.56
2023-03-01T12:49:29.673Z,101255.89
2023-03-01T12:51:34.980Z,101253.8
2023-03-01T12:53:40.241Z,101248.27
2023-03-01T12:55:45.733Z,101254.13
2023-03-01T12:57:50.975Z,101248.39
2023-03-01T12:59:56.323Z,101250.87
2023-03-01T13:02:02.019Z,101248.63
2023-03-01T13:04:07.557Z,101243.66
2023-03-01T13:06:13.263Z,101243.05
2023-03-01T13:08:18.615Z,101236.95
2023-03-01T13:10:24.039Z,101239.08
2023-03-01T13:12:29.530Z,101231.41
2023-03-01T13:14:35.090Z,101237.41
2023-03-01T13:16:40.756Z,101233.6
2023-03-01T13:18:46.316Z,101232.88
2023-03-01T13:20:51.767Z,101232.5
2023-03-01T13:22:56.981Z,101230.55
2023-03-01T13:25:02.516Z,101232.2
2023-03-01T13:27:08.111Z,101230.52
2023-03-01T13:29:13.773Z,101230.92
2023-03-01T13:31:19.235Z,101227.11
2023-03-01T13:33:25.047Z,101223.97
2023-03-01T13:35:30.402Z,101220.97
2023-03-01T13:37:35.799Z,101222.27
2023-03-01T13:39:41.172Z,101219.98
2023-03-01T13:41:46.624Z,101223.15
2023-03-01T13:43:52.070Z,101216.91
2023-03-01T13:45:58.186Z,101218.78
2023-03-01T13:48:04.502Z,101218.1
2023-03-01T13:50:09.983Z,101212.57
2023-03-01T13:52:15.458Z,101212.05
2023-03-01T13:54:21.203Z,101211.89
2023-03-01T13:56:27.233Z,101212.48
2023-03-01T13:58:33.456Z,101212.41
2023-03-01T14:00:39.152Z,101213.03
2023-03-01T14:02:44.847Z,101211.46
2023-03-01T14:04:53.290Z,101208.1
2023-03-01T14:06:59.634Z,101210.84
2023-03-01T14:09:08.328Z,101210.02
2023-03-01T14:11:14.498Z,101209.14
2023-03-01T14:13:21.045Z,101210.85
2023-03-01T14:15:26.838Z,101202.69
2023-03-01T14:17:32.195Z,101206.11
2023-03-01T14:19:37.814Z,101207.64
2023-03-01T14:21:43.415Z,101202.65
2023-03-01T14:23:49.180Z,101201.73
2023-03-01T14:25:54.804Z,101194.93
2023-03-01T14:28:00.668Z,101197.38
2023-03-01T14:30:10.009Z,101192.48
2023-03-01T14:32:15.914Z,101195.28
2023-03-01T14:34:21.495Z,101192.05
2023-03-01T14:36:27.164Z,101192.25
2023-03-01T14:38:33.253Z,101192.22
2023-03-01T14:40:38.583Z,101192
2023-03-01T14:42:44.599Z,101186.05
2023-03-01T14:44:50.178Z,101188.92
2023-03-01T14:46:55.578Z,101184.86
2023-03-01T14:49:01.744Z,101178.45
2023-03-01T14:51:07.868Z,101178.28
2023-03-01T14:53:13.053Z,101175.33
2023-03-01T14:55:19.288Z,101176.59
2023-03-01T14:57:25.175Z,101176.77
2023-03-01T14:59:30.714Z,101170.93
2023-03-01T15:01:36.192Z,101167.83
2023-03-01T15:03:42.071Z,101165.42
2023-03-01T15:05:50.033Z,101167.61
2023-03-01T15:07:55.347Z,101167.33
2023-03-01T15:10:01.176Z,101162.89
2023-03-01T15:12:07.184Z,101163.38
2023-03-01T15:14:12.953Z,101161.72
2023-03-01T15:16:18.486Z,101157.73
2023-03-01T15:18:24.253Z,101160.72
2023-03-01T15:20:30.849Z,101161.06
2023-03-01T15:22:36.245Z,101156.29
2023-03-01T15:24:42.053Z,101151.92
2023-03-01T15:26:48.166Z,101154.52
2023-03-01T15:28:53.818Z,101156.9
2023-03-01T15:30:59.413Z,101157.04
2023-03-01T15:33:05.753Z,101155.33
2023-03-01T15:35:11.628Z,101150.21
2023-03-01T15:37:17.426Z,101153.06
2023-03-01T15:39:23.651Z,101156.19
2023-03-01T15:41:29.908Z,101150.11
2023-03-01T15:43:35.935Z,101159.67
2023-03-01T15:45:41.584Z,101163.86
2023-03-01T15:47:48.541Z,101162.68
2023-03-01T15:49:57.504Z,101158.52
2023-03-01T15:52:02.923Z,101156.67
2023-03-01T15:54:08.498Z,101152.66
2023-03-01T15:56:16.805Z,101148.24
2023-03-01T15:58:22.533Z,101149.06
2023-03-01T16:00:28.585Z,101143.01
2023-03-01T16:02:35.330Z,101146.28
2023-03-01T16:04:41.788Z,101143.71
2023-03-01T16:06:47.767Z,101149.32
2023-03-01T16:08:53.607Z,101142.98
2023-03-01T16:10:59.845Z,101142.99
2023-03-01T16:13:06.267Z,101144.61
2023-03-01T16:15:19.859Z,101149.14
2023-03-01T16:17:26.104Z,101150.5
2023-03-01T16:19:33.716Z,101152.4
2023-03-01T16:21:40.252Z,101156.69
2023-03-01T16:23:47.203Z,101152.22
2023-03-01T16:25:53.135Z,101151.7
2023-03-01T16:28:01.193Z,101157.39
2023-03-01T16:30:08.108Z,101156.16
2023-03-01T16:32:14.301Z,101159.75
2023-03-01T16:34:22.523Z,101157.12
2023-03-01T16:36:29.476Z,101163.11
2023-03-01T16:38:36.135Z,101159.48
2023-03-01T16:40:44.837Z,101158.98
2023-03-01T16:42:51.683Z,101162.52
2023-03-01T16:45:02.909Z,101163.14
2023-03-01T16:47:29.392Z,101167.69
2023-03-01T16:49:38.170Z,101167.88
2023-03-01T16:51:43.966Z,101166.51
2023-03-01T16:53:51.008Z,101172.39
2023-03-01T16:55:56.981Z,101175.3
2023-03-01T16:58:03.924Z,101177.27
2023-03-01T17:00:11.739Z,101176.63
2023-03-01T17:02:21.404Z,101174.09
2023-03-01T17:04:32.601Z,101174.63
2023-03-01T17:06:40.319Z,101177.32
2023-03-01T17:08:47.844Z,101178.77
2023-03-01T17:10:54.922Z,101176.56
2023-03-01T17:13:03.066Z,101181.89
2023-03-01T17:15:10.817Z,101184.05
2023-03-01T17:17:18.687Z,101185.64
2023-03-01T17:19:26.243Z,101188.47
2023-03-01T17:21:34.766Z,101192.55
2023-03-01T17:23:41.793Z,101192.8
2023-03-01T17:25:53.788Z,101194.78
2023-03-01T17:28:01.461Z,101197.12
2023-03-01T17:30:12.752Z,101199.34
2023-03-01T17:32:21.193Z,101203.57
2023-03-01T17:34:32.519Z,101202.98
2023-03-01T17:36:40.495Z,101205.47
2023-03-01T17:38:49.835Z,101205.17
2023-03-01T17:40:57.310Z,101203.2
2023-03-01T17:43:05.555Z,101196.16
2023-03-01T17:45:12.343Z,101196.67
2023-03-01T17:47:19.422Z,101198.59
2023-03-01T17:49:26.603Z,101195.23
2023-03-01T17:51:36.414Z,101195.41
2023-03-01T17:53:47.587Z,101202.19
2023-03-01T17:55:55.856Z,101203.31
2023-03-01T17:58:03.584Z,101201.34
2023-03-01T18:00:10.677Z,101200.7
2023-03-01T18:02:20.403Z,101205.63
2023-03-01T18:04:27.786Z,101203.38
2023-03-01T18:06:36.201Z,101200.64
2023-03-01T18:08:51.757Z,101190.86
2023-03-01T18:10:58.871Z,101196.88
2023-03-01T18:13:08.739Z,101194.91
2023-03-01T18:15:16.656Z,101191.89
2023-03-01T18:17:27.921Z,101195.44
2023-03-01T18:19:36.114Z,101201.2
2023-03-01T18:21:44.039Z,101202.38
2023-03-01T18:23:56.844Z,101203.73
2023-03-01T18:26:05.294Z,101197.98
2023-03-01T18:28:14.216Z,101197.81
2023-03-01T18:30:23.498Z,101199.35
2023-03-01T18:32:32.315Z,101197.25
2023-03-01T18:34:42.133Z,101196.74
2023-03-01T18:37:10.448Z,101191.44
2023-03-01T18:39:18.790Z,101190.95
2023-03-01T18:41:26.828Z,101190.88
2023-03-01T18:43:35.056Z,101185.98
2023-03-01T18:45:42.762Z,101191.97
2023-03-01T18:47:54.623Z,101186.73
2023-03-01T18:50:02.906Z,101190.91
2023-03-01T18:52:10.943Z,101184.25
2023-03-01T18:54:19.137Z,101183.92
2023-03-01T18:56:27.430Z,101183.73
2023-03-01T18:58:41.036Z,101187.47
2023-03-01T19:00:50.404Z,101192.94
2023-03-01T19:03:00.716Z,101198.44
2023-03-01T19:05:16.405Z,101198.72
2023-03-01T19:07:25.694Z,101202.72
2023-03-01T19:09:34.635Z,101191.42
2023-03-01T19:11:45.149Z,101190.41
2023-03-01T19:14:00.131Z,101190.15
2023-03-01T19:16:09.887Z,101185.93
2023-03-01T19:18:20.688Z,101181.05
2023-03-01T19:20:30.621Z,101181.05
2023-03-01T19:22:38.475Z,101181.09
2023-03-01T19:24:46.280Z,101187.66
2023-03-01T19:26:56.475Z,101189.43
2023-03-01T19:29:12.241Z,101199.51
2023-03-01T19:31:22.082Z,101206.33
2023-03-01T19:33:31.613Z,101206.8
2023-03-01T19:35:42.127Z,101214.69
2023-03-01T19:37:51.782Z,101218.8
2023-03-01T19:40:01.537Z,101220.38
2023-03-01T19:42:09.994Z,101223.45
2023-03-01T19:44:20.074Z,101222.45
2023-03-01T19:46:30.634Z,101220.04
2023-03-01T19:48:43.641Z,101223.8
2023-03-01T19:50:57.524Z,101224.3
2023-03-01T19:53:08.130Z,101221.94
2023-03-01T19:55:26.309Z,101221.78
2023-03-01T19:57:36.199Z,101222.09
2023-03-01T19:59:44.583Z,101221.73
2023-03-01T20:01:55.804Z,101226.84
2023-03-01T20:04:13.390Z,101222.33
2023-03-01T20:06:22.552Z,101222.96
2023-03-01T20:08:32.837Z,101221.46
2023-03-01T20:10:42.298Z,101220.42
2023-03-01T20:13:01.288Z,101217.27
2023-03-01T20:15:12.813Z,101216.09
2023-03-01T20:17:21.456Z,101218.86
2023-03-01T20:19:31.257Z,101221.23
2023-03-01T20:21:39.907Z,101220.84
2023-03-01T20:23:52.324Z,101215.78
2023-03-01T20:26:01.345Z,101212.82
2023-03-01T20:28:12.606Z,101217.17
2023-03-01T20:30:21.257Z,101221.17
2023-03-01T20:32:30.737Z,101224.3
2023-03-01T20:34:41.556Z,101223.5
2023-03-01T20:36:50.788Z,101224.89
2023-03-01T20:39:00.774Z,101228.22
2023-03-01T20:41:11.542Z,101230.71
2023-03-01T20:43:21.264Z,101233.73
2023-03-01T20:45:30.585Z,101229.44
2023-03-01T20:47:38.378Z,101226.17
2023-03-01T20:49:47.630Z,101226.97
2023-03-01T20:51:55.702Z,101223.42
2023-03-01T20:54:09.069Z,101221.88
2023-03-01T20:56:18.651Z,101225.16
2023-03-01T20:58:29.740Z,101231.28
2023-03-01T21:00:37.656Z,101229.73
2023-03-01T21:02:45.921Z,101229.59
2023-03-01T21:04:53.775Z,101224.77
2023-03-01T21:07:06.078Z,101223.74
2023-03-01T21:09:15.742Z,101219.67
2023-03-01T21:11:24.414Z,101214.27
2023-03-01T21:13:35.095Z,101208.9
2023-03-01T21:15:41.441Z,101207.33
2023-03-01T21:17:48.250Z,101203.61
2023-03-01T21:19:54.646Z,101210.34
2023-03-01T21:22:00.702Z,101216.47
2023-03-01T21:24:08.370Z,101214.76
2023-03-01T21:26:15.330Z,101215.59
2023-03-01T21:28:22.219Z,101212.3
2023-03-01T21:30:28.881Z,101211.61
2023-03-01T21:32:35.539Z,101210.52
2023-03-01T21:34:42.235Z,101212.89
2023-03-01T21:36:49.118Z,101217.33
2023-03-01T21:38:55.114Z,101220.08
2023-03-01T21:41:01.094Z,101216.09
2023-03-01T21:43:08.321Z,101214.11
2023-03-01T21:45:14.555Z,101214.59
2023-03-01T21:47:20.641Z,101214.84
2023-03-01T21:49:27.594Z,101211.38
2023-03-01T21:51:33.252Z,101208.8
2023-03-01T21:53:39.054Z,101204.31
2023-03-01T21:55:45.063Z,101204.94
2023-03-01T21:57:51.814Z,101197.55
2023-03-01T21:59:57.734Z,101204.81
2023-03-01T22:02:03.748Z,101207.88
2023-03-01T22:04:09.440Z,101210.28
2023-03-01T22:06:15.066Z,101209.23
2023-03-01T22:08:23.019Z,101208.91
2023-03-01T22:10:28.621Z,101206.48
2023-03-01T22:12:34.171Z,101207.07
2023-03-01T22:14:39.896Z,101207.45
2023-03-01T22:16:45.895Z,101205.97
2023-03-01T22:18:51.476Z,101204.88
2023-03-01T22:20:57.171Z,101196.61
2023-03-01T22:23:02.613Z,101195.03
2023-03-01T22:25:07.892Z,101198.44
2023-03-01T22:27:13.280Z,101193.99
2023-03-01T22:29:19.178Z,101192.95
2023-03-01T22:31:24.861Z,101192.92
2023-03-01T22:33:30.724Z,101189.7
2023-03-01T22:35:36.190Z,101189.49
2023-03-01T22:37:42.169Z,101195.86
2023-03-01T22:39:47.615Z,101191.06
2023-03-01T22:41:53.108Z,101185.69
2023-03-01T22:43:59.811Z,101185.5
2023-03-01T22:46:05.533Z,101182.2
2023-03-01T22:48:11.405Z,101185.95
2023-03-01T22:50:16.616Z,101187.26
2023-03-01T22:52:21.938Z,101183.56
2023-03-01T22:54:27.186Z,101183.67
2023-03-01T22:56:34.014Z,101185.03
2023-03-01T22:58:40.034Z,101180.09
2023-03-01T23:00:45.400Z,101179.12
2023-03-01T23:02:51.152Z,101176.8
2023-03-01T23:04:56.858Z,101182.64
2023-03-01T23:07:02.523Z,101180.25
2023-03-01T23:09:08.385Z,101181.48
2023-03-01T23:11:15.680Z,101183.19
2023-03-01T23:13:35.732Z,101184.38
2023-03-01T23:15:41.037Z,101186.04
2023-03-01T23:17:46.815Z,101186.2
2023-03-01T23:19:52.344Z,101186.83
2023-03-01T23:21:57.849Z,101185.88
2023-03-01T23:24:04.073Z,101186.92
2023-03-01T23:26:09.610Z,101186.64
2023-03-01T23:28:15.386Z,101184.77
2023-03-01T23:30:20.645Z,101188.87
2023-03-01T23:32:26.405Z,101185.66
2023-03-01T23:34:31.877Z,101186.64
2023-03-01T23:36:37.477Z,101180.66
2023-03-01T23:38:42.781Z,101180.94
2023-03-01T23:40:48.204Z,101174.8
2023-03-01T23:42:54.135Z,101174.66
2023-03-01T23:44:59.889Z,101173.94
2023-03-01T23:47:05.348Z,101174.87
2023-03-01T23:49:10.476Z,101172.3
2023-03-01T23:51:15.958Z,101174.55
2023-03-01T23:53:22.771Z,101177.14
2023-03-01T23:55:28.074Z,101185.45
2023-03-01T23:57:33.581Z,101182.25
2023-03-01T23:59:38.955Z,101176.41
